sensor_id;sensor_type;location;lat;lon;timestamp;P1;durP1;ratioP1;P2;durP2;ratioP2
46653;SDS011;38960;51.074;17.004;2023-06-10T00:00:12;26.77;;;24.52;;
46653;SDS011;38960;51.074;17.004;2023-06-10T00:02:41;27.63;;;25.33;;
46653;SDS011;38960;51.074;17.004;2023-06-10T00:05:08;27.60;;;25.40;;
46653;SDS011;38960;51.074;17.004;2023-06-10T00:07:34;26.52;;;24.10;;
46653;SDS011;38960;51.074;17.004;2023-06-10T00:10:06;25.98;;;23.90;;
46653;SDS011;38960;51.074;17.004;2023-06-10T00:12:32;27.48;;;24.77;;
46653;SDS011;38960;51.074;17.004;2023-06-10T00:15:05;26.65;;;24.27;;
46653;SDS011;38960;51.074;17.004;2023-06-10T00:17:31;26.50;;;24.30;;
46653;SDS011;38960;51.074;17.004;2023-06-10T00:19:57;25.55;;;23.17;;
46653;SDS011;38960;51.074;17.004;2023-06-10T00:22:23;25.23;;;23.30;;
46653;SDS011;38960;51.074;17.004;2023-06-10T00:24:49;26.55;;;24.20;;
46653;SDS011;38960;51.074;17.004;2023-06-10T00:27:16;26.55;;;24.55;;
46653;SDS011;38960;51.074;17.004;2023-06-10T00:29:41;25.52;;;23.30;;
46653;SDS011;38960;51.074;17.004;2023-06-10T00:32:07;26.45;;;24.40;;
46653;SDS011;38960;51.074;17.004;2023-06-10T00:34:34;26.40;;;24.40;;
46653;SDS011;38960;51.074;17.004;2023-06-10T00:36:59;27.48;;;25.30;;
46653;SDS011;38960;51.074;17.004;2023-06-10T00:39:25;25.98;;;23.98;;
46653;SDS011;38960;51.074;17.004;2023-06-10T00:41:50;28.17;;;25.35;;
46653;SDS011;38960;51.074;17.004;2023-06-10T00:44:16;27.50;;;25.05;;
46653;SDS011;38960;51.074;17.004;2023-06-10T00:46:41;26.67;;;24.67;;
46653;SDS011;38960;51.074;17.004;2023-06-10T00:49:07;28.08;;;25.58;;
46653;SDS011;38960;51.074;17.004;2023-06-10T00:51:33;28.15;;;26.00;;
46653;SDS011;38960;51.074;17.004;2023-06-10T00:54:00;27.65;;;25.30;;
46653;SDS011;38960;51.074;17.004;2023-06-10T00:56:25;27.67;;;25.52;;
46653;SDS011;38960;51.074;17.004;2023-06-10T00:58:52;28.88;;;26.60;;
46653;SDS011;38960;51.074;17.004;2023-06-10T01:01:17;29.60;;;26.77;;
46653;SDS011;38960;51.074;17.004;2023-06-10T01:03:45;28.33;;;25.63;;
46653;SDS011;38960;51.074;17.004;2023-06-10T01:09:28;28.40;;;25.95;;
46653;SDS011;38960;51.074;17.004;2023-06-10T01:11:47;27.42;;;25.10;;
46653;SDS011;38960;51.074;17.004;2023-06-10T01:14:15;29.08;;;26.38;;
46653;SDS011;38960;51.074;17.004;2023-06-10T01:16:43;27.98;;;25.55;;
46653;SDS011;38960;51.074;17.004;2023-06-10T01:19:13;28.80;;;26.60;;
46653;SDS011;38960;51.074;17.004;2023-06-10T01:21:43;27.15;;;24.77;;
46653;SDS011;38960;51.074;17.004;2023-06-10T01:24:13;26.98;;;24.83;;
46653;SDS011;38960;51.074;17.004;2023-06-10T01:26:43;27.80;;;25.63;;
46653;SDS011;38960;51.074;17.004;2023-06-10T01:29:17;28.25;;;26.02;;
46653;SDS011;38960;51.074;17.004;2023-06-10T01:31:48;28.45;;;26.15;;
46653;SDS011;38960;51.074;17.004;2023-06-10T01:34:19;27.50;;;25.50;;
46653;SDS011;38960;51.074;17.004;2023-06-10T01:36:47;28.08;;;25.63;;
46653;SDS011;38960;51.074;17.004;2023-06-10T01:39:14;28.48;;;26.08;;
46653;SDS011;38960;51.074;17.004;2023-06-10T01:41:41;28.25;;;26.15;;
46653;SDS011;38960;51.074;17.004;2023-06-10T01:44:07;29.42;;;27.00;;
46653;SDS011;38960;51.074;17.004;2023-06-10T01:46:33;28.30;;;26.10;;
46653;SDS011;38960;51.074;17.004;2023-06-10T01:48:58;28.73;;;26.60;;
46653;SDS011;38960;51.074;17.004;2023-06-10T01:51:24;28.92;;;26.48;;
46653;SDS011;38960;51.074;17.004;2023-06-10T01:53:49;28.70;;;26.40;;
46653;SDS011;38960;51.074;17.004;2023-06-10T01:56:15;28.92;;;26.73;;
46653;SDS011;38960;51.074;17.004;2023-06-10T01:58:45;29.92;;;27.50;;
46653;SDS011;38960;51.074;17.004;2023-06-10T02:01:11;29.08;;;26.60;;
46653;SDS011;38960;51.074;17.004;2023-06-10T02:03:36;29.60;;;27.30;;
46653;SDS011;38960;51.074;17.004;2023-06-10T02:06:02;29.42;;;27.15;;
46653;SDS011;38960;51.074;17.004;2023-06-10T02:08:28;28.50;;;25.88;;
46653;SDS011;38960;51.074;17.004;2023-06-10T02:10:53;30.00;;;27.15;;
46653;SDS011;38960;51.074;17.004;2023-06-10T02:13:19;29.08;;;26.73;;
46653;SDS011;38960;51.074;17.004;2023-06-10T02:15:45;29.48;;;27.13;;
46653;SDS011;38960;51.074;17.004;2023-06-10T02:18:10;28.65;;;25.95;;
46653;SDS011;38960;51.074;17.004;2023-06-10T02:20:37;29.02;;;26.63;;
46653;SDS011;38960;51.074;17.004;2023-06-10T02:23:03;28.33;;;25.75;;
46653;SDS011;38960;51.074;17.004;2023-06-10T02:25:29;29.65;;;27.35;;
46653;SDS011;38960;51.074;17.004;2023-06-10T02:27:56;29.00;;;26.42;;
46653;SDS011;38960;51.074;17.004;2023-06-10T02:30:22;29.25;;;26.75;;
46653;SDS011;38960;51.074;17.004;2023-06-10T02:32:49;29.15;;;26.38;;
46653;SDS011;38960;51.074;17.004;2023-06-10T02:35:17;27.08;;;25.15;;
46653;SDS011;38960;51.074;17.004;2023-06-10T02:37:43;29.48;;;26.95;;
46653;SDS011;38960;51.074;17.004;2023-06-10T02:40:09;27.95;;;25.80;;
46653;SDS011;38960;51.074;17.004;2023-06-10T02:42:37;28.25;;;25.73;;
46653;SDS011;38960;51.074;17.004;2023-06-10T02:45:03;26.60;;;24.58;;
46653;SDS011;38960;51.074;17.004;2023-06-10T02:47:37;26.23;;;24.02;;
46653;SDS011;38960;51.074;17.004;2023-06-10T02:50:04;29.35;;;26.75;;
46653;SDS011;38960;51.074;17.004;2023-06-10T02:52:34;27.13;;;24.93;;
46653;SDS011;38960;51.074;17.004;2023-06-10T02:55:00;27.52;;;25.20;;
46653;SDS011;38960;51.074;17.004;2023-06-10T02:57:26;28.10;;;25.58;;
46653;SDS011;38960;51.074;17.004;2023-06-10T02:59:52;27.40;;;25.33;;
46653;SDS011;38960;51.074;17.004;2023-06-10T03:02:19;28.33;;;25.98;;
46653;SDS011;38960;51.074;17.004;2023-06-10T03:04:49;27.35;;;25.30;;
46653;SDS011;38960;51.074;17.004;2023-06-10T03:07:17;28.33;;;25.95;;
46653;SDS011;38960;51.074;17.004;2023-06-10T03:09:44;28.15;;;26.05;;
46653;SDS011;38960;51.074;17.004;2023-06-10T03:12:11;27.90;;;25.63;;
46653;SDS011;38960;51.074;17.004;2023-06-10T03:14:42;26.50;;;24.55;;
46653;SDS011;38960;51.074;17.004;2023-06-10T03:17:09;27.02;;;25.05;;
46653;SDS011;38960;51.074;17.004;2023-06-10T03:19:35;26.88;;;24.75;;
46653;SDS011;38960;51.074;17.004;2023-06-10T03:22:09;27.23;;;25.15;;
46653;SDS011;38960;51.074;17.004;2023-06-10T03:24:40;27.95;;;25.90;;
46653;SDS011;38960;51.074;17.004;2023-06-10T03:27:08;28.65;;;26.30;;
46653;SDS011;38960;51.074;17.004;2023-06-10T03:29:36;27.75;;;25.65;;
46653;SDS011;38960;51.074;17.004;2023-06-10T03:32:04;28.00;;;25.48;;
46653;SDS011;38960;51.074;17.004;2023-06-10T03:34:30;27.85;;;25.77;;
46653;SDS011;38960;51.074;17.004;2023-06-10T03:36:56;26.88;;;24.98;;
46653;SDS011;38960;51.074;17.004;2023-06-10T03:39:22;27.75;;;25.38;;
46653;SDS011;38960;51.074;17.004;2023-06-10T03:41:49;27.98;;;25.88;;
46653;SDS011;38960;51.074;17.004;2023-06-10T03:44:15;27.35;;;25.23;;
46653;SDS011;38960;51.074;17.004;2023-06-10T03:46:41;26.38;;;24.23;;
46653;SDS011;38960;51.074;17.004;2023-06-10T03:49:07;26.13;;;24.02;;
46653;SDS011;38960;51.074;17.004;2023-06-10T03:51:33;25.35;;;22.90;;
46653;SDS011;38960;51.074;17.004;2023-06-10T03:53:58;27.23;;;25.00;;
46653;SDS011;38960;51.074;17.004;2023-06-10T03:56:24;27.48;;;25.10;;
46653;SDS011;38960;51.074;17.004;2023-06-10T03:58:51;25.42;;;23.55;;
46653;SDS011;38960;51.074;17.004;2023-06-10T04:01:16;27.23;;;24.83;;
46653;SDS011;38960;51.074;17.004;2023-06-10T04:03:49;27.38;;;25.38;;
46653;SDS011;38960;51.074;17.004;2023-06-10T04:06:16;27.88;;;25.27;;
46653;SDS011;38960;51.074;17.004;2023-06-10T04:08:42;25.60;;;23.75;;
46653;SDS011;38960;51.074;17.004;2023-06-10T04:11:08;26.73;;;24.48;;
46653;SDS011;38960;51.074;17.004;2023-06-10T04:13:34;27.15;;;24.92;;
46653;SDS011;38960;51.074;17.004;2023-06-10T04:15:59;27.58;;;25.10;;
46653;SDS011;38960;51.074;17.004;2023-06-10T04:18:25;26.48;;;24.45;;
46653;SDS011;38960;51.074;17.004;2023-06-10T04:20:54;26.95;;;24.95;;
46653;SDS011;38960;51.074;17.004;2023-06-10T04:23:21;27.42;;;25.02;;
46653;SDS011;38960;51.074;17.004;2023-06-10T04:25:46;27.33;;;24.83;;
46653;SDS011;38960;51.074;17.004;2023-06-10T04:28:13;27.45;;;25.42;;
46653;SDS011;38960;51.074;17.004;2023-06-10T04:30:39;26.23;;;24.23;;
46653;SDS011;38960;51.074;17.004;2023-06-10T04:33:07;26.45;;;24.35;;
46653;SDS011;38960;51.074;17.004;2023-06-10T04:35:34;26.90;;;24.70;;
46653;SDS011;38960;51.074;17.004;2023-06-10T04:38:01;26.52;;;24.33;;
46653;SDS011;38960;51.074;17.004;2023-06-10T04:40:27;27.70;;;25.30;;
46653;SDS011;38960;51.074;17.004;2023-06-10T04:42:53;26.10;;;24.00;;
46653;SDS011;38960;51.074;17.004;2023-06-10T04:45:19;26.15;;;24.15;;
46653;SDS011;38960;51.074;17.004;2023-06-10T04:47:44;27.88;;;25.52;;
46653;SDS011;38960;51.074;17.004;2023-06-10T04:50:10;26.80;;;24.73;;
46653;SDS011;38960;51.074;17.004;2023-06-10T04:52:36;28.83;;;26.63;;
46653;SDS011;38960;51.074;17.004;2023-06-10T04:55:01;28.48;;;26.08;;
46653;SDS011;38960;51.074;17.004;2023-06-10T04:57:27;28.92;;;26.48;;
46653;SDS011;38960;51.074;17.004;2023-06-10T04:59:53;27.30;;;24.88;;
46653;SDS011;38960;51.074;17.004;2023-06-10T05:02:18;28.42;;;26.10;;
46653;SDS011;38960;51.074;17.004;2023-06-10T05:04:44;27.15;;;24.98;;
46653;SDS011;38960;51.074;17.004;2023-06-10T05:07:09;27.60;;;25.48;;
46653;SDS011;38960;51.074;17.004;2023-06-10T05:09:35;29.25;;;26.88;;
46653;SDS011;38960;51.074;17.004;2023-06-10T05:12:00;28.25;;;25.85;;
46653;SDS011;38960;51.074;17.004;2023-06-10T05:14:27;27.35;;;25.33;;
46653;SDS011;38960;51.074;17.004;2023-06-10T05:16:52;27.95;;;25.83;;
46653;SDS011;38960;51.074;17.004;2023-06-10T05:19:18;28.38;;;25.92;;
46653;SDS011;38960;51.074;17.004;2023-06-10T05:21:44;28.25;;;26.13;;
46653;SDS011;38960;51.074;17.004;2023-06-10T05:24:10;30.05;;;27.35;;
46653;SDS011;38960;51.074;17.004;2023-06-10T05:26:36;27.85;;;25.65;;
46653;SDS011;38960;51.074;17.004;2023-06-10T05:29:03;27.73;;;25.65;;
46653;SDS011;38960;51.074;17.004;2023-06-10T05:31:29;29.05;;;26.25;;
46653;SDS011;38960;51.074;17.004;2023-06-10T05:33:55;28.30;;;26.10;;
46653;SDS011;38960;51.074;17.004;2023-06-10T05:36:20;28.70;;;26.02;;
46653;SDS011;38960;51.074;17.004;2023-06-10T05:38:46;29.05;;;26.88;;
46653;SDS011;38960;51.074;17.004;2023-06-10T05:41:12;30.23;;;27.92;;
46653;SDS011;38960;51.074;17.004;2023-06-10T05:43:37;29.90;;;27.50;;
46653;SDS011;38960;51.074;17.004;2023-06-10T05:46:02;30.33;;;27.83;;
46653;SDS011;38960;51.074;17.004;2023-06-10T05:48:28;31.20;;;28.00;;
46653;SDS011;38960;51.074;17.004;2023-06-10T05:50:53;28.77;;;26.17;;
46653;SDS011;38960;51.074;17.004;2023-06-10T05:53:19;29.52;;;26.67;;
46653;SDS011;38960;51.074;17.004;2023-06-10T05:55:45;31.92;;;28.88;;
46653;SDS011;38960;51.074;17.004;2023-06-10T05:58:11;31.70;;;28.95;;
46653;SDS011;38960;51.074;17.004;2023-06-10T06:00:40;31.35;;;28.38;;
46653;SDS011;38960;51.074;17.004;2023-06-10T06:03:06;31.20;;;28.67;;
46653;SDS011;38960;51.074;17.004;2023-06-10T06:05:33;30.90;;;28.20;;
46653;SDS011;38960;51.074;17.004;2023-06-10T06:08:18;30.90;;;28.10;;
46653;SDS011;38960;51.074;17.004;2023-06-10T06:10:44;29.80;;;27.17;;
46653;SDS011;38960;51.074;17.004;2023-06-10T06:13:10;30.58;;;28.00;;
46653;SDS011;38960;51.074;17.004;2023-06-10T06:15:36;31.83;;;28.75;;
46653;SDS011;38960;51.074;17.004;2023-06-10T06:18:01;32.25;;;29.20;;
46653;SDS011;38960;51.074;17.004;2023-06-10T06:20:27;30.95;;;28.25;;
46653;SDS011;38960;51.074;17.004;2023-06-10T06:22:52;30.45;;;27.67;;
46653;SDS011;38960;51.074;17.004;2023-06-10T06:25:18;33.53;;;30.42;;
46653;SDS011;38960;51.074;17.004;2023-06-10T06:27:43;31.92;;;28.88;;
46653;SDS011;38960;51.074;17.004;2023-06-10T06:30:09;30.85;;;28.13;;
46653;SDS011;38960;51.074;17.004;2023-06-10T06:32:35;31.42;;;28.55;;
46653;SDS011;38960;51.074;17.004;2023-06-10T06:35:00;32.92;;;29.58;;
46653;SDS011;38960;51.074;17.004;2023-06-10T06:37:26;30.42;;;27.73;;
46653;SDS011;38960;51.074;17.004;2023-06-10T06:40:05;31.40;;;28.80;;
46653;SDS011;38960;51.074;17.004;2023-06-10T06:42:31;29.85;;;27.10;;
46653;SDS011;38960;51.074;17.004;2023-06-10T06:45:07;31.40;;;28.50;;
46653;SDS011;38960;51.074;17.004;2023-06-10T06:47:33;28.92;;;26.38;;
46653;SDS011;38960;51.074;17.004;2023-06-10T06:49:59;29.95;;;27.20;;
46653;SDS011;38960;51.074;17.004;2023-06-10T06:52:24;29.52;;;27.02;;
46653;SDS011;38960;51.074;17.004;2023-06-10T06:54:50;30.23;;;27.73;;
46653;SDS011;38960;51.074;17.004;2023-06-10T06:57:15;30.95;;;28.17;;
46653;SDS011;38960;51.074;17.004;2023-06-10T06:59:41;29.08;;;26.55;;
46653;SDS011;38960;51.074;17.004;2023-06-10T07:02:06;29.83;;;27.30;;
46653;SDS011;38960;51.074;17.004;2023-06-10T07:04:32;29.83;;;26.88;;
46653;SDS011;38960;51.074;17.004;2023-06-10T07:06:57;29.23;;;26.45;;
46653;SDS011;38960;51.074;17.004;2023-06-10T07:09:23;30.50;;;27.63;;
46653;SDS011;38960;51.074;17.004;2023-06-10T07:11:48;30.13;;;27.52;;
46653;SDS011;38960;51.074;17.004;2023-06-10T07:14:14;31.08;;;27.98;;
46653;SDS011;38960;51.074;17.004;2023-06-10T07:16:40;29.17;;;26.60;;
46653;SDS011;38960;51.074;17.004;2023-06-10T07:19:06;29.33;;;26.52;;
46653;SDS011;38960;51.074;17.004;2023-06-10T07:21:32;31.02;;;28.15;;
46653;SDS011;38960;51.074;17.004;2023-06-10T07:23:59;29.75;;;27.27;;
46653;SDS011;38960;51.074;17.004;2023-06-10T07:26:24;31.50;;;28.58;;
46653;SDS011;38960;51.074;17.004;2023-06-10T07:28:51;31.90;;;29.20;;
46653;SDS011;38960;51.074;17.004;2023-06-10T07:31:16;31.88;;;29.05;;
46653;SDS011;38960;51.074;17.004;2023-06-10T07:33:42;26.30;;;23.98;;
46653;SDS011;38960;51.074;17.004;2023-06-10T07:36:08;29.50;;;26.90;;
46653;SDS011;38960;51.074;17.004;2023-06-10T07:38:34;30.40;;;27.90;;
46653;SDS011;38960;51.074;17.004;2023-06-10T07:41:01;29.35;;;26.95;;
46653;SDS011;38960;51.074;17.004;2023-06-10T07:43:26;29.92;;;27.52;;
46653;SDS011;38960;51.074;17.004;2023-06-10T07:45:52;30.15;;;27.63;;
46653;SDS011;38960;51.074;17.004;2023-06-10T07:48:17;28.70;;;26.02;;
46653;SDS011;38960;51.074;17.004;2023-06-10T07:50:43;28.92;;;26.63;;
46653;SDS011;38960;51.074;17.004;2023-06-10T07:53:09;28.70;;;26.20;;
46653;SDS011;38960;51.074;17.004;2023-06-10T07:55:34;28.02;;;25.63;;
46653;SDS011;38960;51.074;17.004;2023-06-10T07:58:00;29.83;;;26.95;;
46653;SDS011;38960;51.074;17.004;2023-06-10T08:00:25;29.48;;;26.92;;
46653;SDS011;38960;51.074;17.004;2023-06-10T08:02:51;30.80;;;28.05;;
46653;SDS011;38960;51.074;17.004;2023-06-10T08:05:17;30.38;;;27.52;;
46653;SDS011;38960;51.074;17.004;2023-06-10T08:07:42;29.30;;;26.83;;
46653;SDS011;38960;51.074;17.004;2023-06-10T08:10:09;29.35;;;26.95;;
46653;SDS011;38960;51.074;17.004;2023-06-10T08:12:35;28.50;;;26.20;;
46653;SDS011;38960;51.074;17.004;2023-06-10T08:15:01;28.17;;;26.00;;
46653;SDS011;38960;51.074;17.004;2023-06-10T08:17:29;27.20;;;24.98;;
46653;SDS011;38960;51.074;17.004;2023-06-10T08:19:55;27.23;;;24.98;;
46653;SDS011;38960;51.074;17.004;2023-06-10T08:22:21;26.85;;;24.48;;
46653;SDS011;38960;51.074;17.004;2023-06-10T08:24:46;26.50;;;24.20;;
46653;SDS011;38960;51.074;17.004;2023-06-10T08:27:12;24.95;;;23.05;;
46653;SDS011;38960;51.074;17.004;2023-06-10T08:29:37;27.02;;;24.73;;
46653;SDS011;38960;51.074;17.004;2023-06-10T08:32:03;25.80;;;23.55;;
46653;SDS011;38960;51.074;17.004;2023-06-10T08:34:29;26.55;;;24.50;;
46653;SDS011;38960;51.074;17.004;2023-06-10T08:36:55;25.27;;;23.35;;
46653;SDS011;38960;51.074;17.004;2023-06-10T08:39:23;25.45;;;23.50;;
46653;SDS011;38960;51.074;17.004;2023-06-10T08:42:11;25.60;;;23.20;;
46653;SDS011;38960;51.074;17.004;2023-06-10T08:44:37;24.75;;;22.83;;
46653;SDS011;38960;51.074;17.004;2023-06-10T08:47:06;24.02;;;22.33;;
46653;SDS011;38960;51.074;17.004;2023-06-10T08:49:34;24.60;;;22.40;;
46653;SDS011;38960;51.074;17.004;2023-06-10T08:52:04;25.48;;;23.35;;
46653;SDS011;38960;51.074;17.004;2023-06-10T08:54:32;25.08;;;22.67;;
46653;SDS011;38960;51.074;17.004;2023-06-10T08:57:00;24.98;;;22.58;;
46653;SDS011;38960;51.074;17.004;2023-06-10T08:59:28;26.15;;;24.05;;
46653;SDS011;38960;51.074;17.004;2023-06-10T09:01:54;24.70;;;22.98;;
46653;SDS011;38960;51.074;17.004;2023-06-10T09:04:20;25.63;;;23.73;;
46653;SDS011;38960;51.074;17.004;2023-06-10T09:06:46;25.30;;;23.50;;
46653;SDS011;38960;51.074;17.004;2023-06-10T09:09:12;25.90;;;23.58;;
46653;SDS011;38960;51.074;17.004;2023-06-10T09:11:40;25.73;;;23.73;;
46653;SDS011;38960;51.074;17.004;2023-06-10T09:14:07;25.38;;;23.45;;
46653;SDS011;38960;51.074;17.004;2023-06-10T09:16:32;24.95;;;23.05;;
46653;SDS011;38960;51.074;17.004;2023-06-10T09:18:58;24.95;;;23.05;;
46653;SDS011;38960;51.074;17.004;2023-06-10T09:21:24;25.25;;;23.40;;
46653;SDS011;38960;51.074;17.004;2023-06-10T09:23:50;23.83;;;22.02;;
46653;SDS011;38960;51.074;17.004;2023-06-10T09:26:16;23.92;;;22.20;;
46653;SDS011;38960;51.074;17.004;2023-06-10T09:28:47;24.88;;;22.88;;
46653;SDS011;38960;51.074;17.004;2023-06-10T09:31:14;23.85;;;22.02;;
46653;SDS011;38960;51.074;17.004;2023-06-10T09:33:43;24.65;;;22.85;;
46653;SDS011;38960;51.074;17.004;2023-06-10T09:36:10;25.52;;;23.13;;
46653;SDS011;38960;51.074;17.004;2023-06-10T09:38:36;23.25;;;21.55;;
46653;SDS011;38960;51.074;17.004;2023-06-10T09:41:02;23.42;;;21.73;;
46653;SDS011;38960;51.074;17.004;2023-06-10T09:43:41;22.98;;;21.45;;
46653;SDS011;38960;51.074;17.004;2023-06-10T09:46:17;23.23;;;21.50;;
46653;SDS011;38960;51.074;17.004;2023-06-10T09:48:44;22.02;;;20.25;;
46653;SDS011;38960;51.074;17.004;2023-06-10T09:51:11;22.88;;;20.80;;
46653;SDS011;38960;51.074;17.004;2023-06-10T09:53:38;22.50;;;20.80;;
46653;SDS011;38960;51.074;17.004;2023-06-10T09:56:03;23.38;;;21.42;;
46653;SDS011;38960;51.074;17.004;2023-06-10T09:58:36;23.25;;;21.38;;
46653;SDS011;38960;51.074;17.004;2023-06-10T10:01:13;23.95;;;22.02;;
46653;SDS011;38960;51.074;17.004;2023-06-10T10:03:46;23.40;;;21.70;;
46653;SDS011;38960;51.074;17.004;2023-06-10T10:06:14;24.45;;;22.52;;
46653;SDS011;38960;51.074;17.004;2023-06-10T10:08:40;25.08;;;22.83;;
46653;SDS011;38960;51.074;17.004;2023-06-10T10:11:06;23.85;;;22.05;;
46653;SDS011;38960;51.074;17.004;2023-06-10T10:13:35;24.33;;;22.33;;
46653;SDS011;38960;51.074;17.004;2023-06-10T10:16:06;24.90;;;22.77;;
46653;SDS011;38960;51.074;17.004;2023-06-10T10:18:38;23.77;;;22.00;;
46653;SDS011;38960;51.074;17.004;2023-06-10T10:21:05;24.92;;;22.77;;
46653;SDS011;38960;51.074;17.004;2023-06-10T10:23:36;24.92;;;22.92;;
46653;SDS011;38960;51.074;17.004;2023-06-10T10:26:09;23.95;;;22.23;;
46653;SDS011;38960;51.074;17.004;2023-06-10T10:28:44;25.50;;;23.25;;
46653;SDS011;38960;51.074;17.004;2023-06-10T10:31:10;26.30;;;24.30;;
46653;SDS011;38960;51.074;17.004;2023-06-10T10:33:42;26.95;;;24.88;;
46653;SDS011;38960;51.074;17.004;2023-06-10T10:36:14;30.98;;;24.23;;
46653;SDS011;38960;51.074;17.004;2023-06-10T10:38:40;27.35;;;24.98;;
